Time;durP1;ratioP1;P1;durP2;ratioP2;P2;SDS_P1;SDS_P2;PMS_P1;PMS_P2;Temp;Humidity;BMP_temperature;BMP_pressure;BME280_temperature;BME280_humidity;BME280_pressure;Samples;Min_cycle;Max_cycle;Signal;HPM_P1;HPM_P2
2023/09/19 00:00:33;;;;;;;1.92;0.80;;;;;;;15.91;100.00;99895.13;7382780;19;20391;-65
2023/09/19 00:03:00;;;;;;;2.33;1.10;;;;;;;15.93;100.00;99898.41;7381326;19;20387;-65
2023/09/19 00:05:29;;;;;;;1.95;0.70;;;;;;;15.96;100.00;99905.13;7381244;19;20699;-65
2023/09/19 00:08:00;;;;;;;2.03;0.88;;;;;;;15.98;100.00;99895.03;7383535;19;20455;-66
2023/09/19 00:10:31;;;;;;;2.67;0.70;;;;;;;16.04;100.00;99902.13;7382136;19;20386;-65
2023/09/19 00:13:05;;;;;;;2.78;0.90;;;;;;;16.07;100.00;99904.38;7383109;19;20769;-65
2023/09/19 00:15:50;;;;;;;2.40;0.80;;;;;;;16.10;99.71;99910.06;7380933;19;20344;-65
2023/09/19 00:18:20;;;;;;;1.77;0.80;;;;;;;16.13;99.67;99908.81;7383020;19;20662;-66
2023/09/19 00:20:49;;;;;;;2.50;0.80;;;;;;;16.10;99.59;99915.41;7380989;19;20408;-66
2023/09/19 00:23:17;;;;;;;2.50;0.90;;;;;;;16.12;99.50;99919.72;7381939;19;20347;-66
2023/09/19 00:25:45;;;;;;;1.90;0.77;;;;;;;16.12;99.23;99917.03;7381593;19;20360;-66
2023/09/19 00:28:12;;;;;;;2.40;0.88;;;;;;;16.10;99.50;99914.59;7381249;19;20341;-65
2023/09/19 00:30:42;;;;;;;1.90;0.90;;;;;;;16.09;99.46;99921.00;7380768;19;21106;-65
2023/09/19 00:33:11;;;;;;;3.58;1.30;;;;;;;16.11;99.35;99916.25;7380060;19;20700;-66
2023/09/19 00:35:38;;;;;;;2.78;1.20;;;;;;;16.13;99.05;99908.81;7377830;19;20364;-66
2023/09/19 00:38:06;;;;;;;2.78;1.25;;;;;;;16.14;98.74;99913.09;7380500;19;20712;-66
2023/09/19 00:40:33;;;;;;;4.00;1.20;;;;;;;16.16;98.63;99904.84;7374022;19;20904;-66
2023/09/19 00:43:00;;;;;;;2.67;1.10;;;;;;;16.17;98.64;99906.47;7377151;19;20372;-66
2023/09/19 00:45:28;;;;;;;3.92;1.40;;;;;;;16.20;98.43;99903.34;7381992;19;20357;-65
2023/09/19 00:47:56;;;;;;;3.15;1.30;;;;;;;16.22;98.46;99902.06;7381680;19;20361;-66
2023/09/19 00:50:25;;;;;;;2.53;1.10;;;;;;;16.24;98.02;99899.97;7378548;19;20333;-66
2023/09/19 00:52:57;;;;;;;2.33;1.30;;;;;;;16.26;98.23;99905.91;7379328;19;20839;-65
2023/09/19 00:55:25;;;;;;;4.15;1.45;;;;;;;16.26;98.09;99903.22;7381306;19;20364;-66
2023/09/19 00:57:55;;;;;;;3.80;1.50;;;;;;;16.25;97.68;99900.75;7377326;19;20403;-66
2023/09/19 01:00:23;;;;;;;3.58;1.67;;;;;;;16.27;97.24;99904.03;7379197;19;20372;-66
2023/09/19 01:02:50;;;;;;;4.13;1.70;;;;;;;16.29;97.05;99916.13;7376595;19;20416;-65
2023/09/19 01:05:18;;;;;;;5.00;1.77;;;;;;;16.31;96.80;99921.25;7380707;19;20352;-66
2023/09/19 01:07:45;;;;;;;4.75;2.00;;;;;;;16.31;96.54;99916.72;7381139;19;20362;-63
2023/09/19 01:10:15;;;;;;;3.80;1.77;;;;;;;16.33;96.66;99923.72;7379438;19;20873;-65
2023/09/19 01:12:57;;;;;;;5.90;2.55;;;;;;;16.33;96.81;99935.22;7376472;19;20372;-65
2023/09/19 01:15:39;;;;;;;4.70;2.30;;;;;;;16.31;96.17;99942.66;7380696;19;20348;-66
2023/09/19 01:18:06;;;;;;;4.10;2.00;;;;;;;16.28;96.20;99943.13;7376182;19;20376;-65
2023/09/19 01:20:42;;;;;;;3.83;2.00;;;;;;;16.31;96.01;99940.78;7379414;19;20374;-65
2023/09/19 01:23:36;;;;;;;5.10;2.30;;;;;;;16.31;95.41;99943.47;7381968;19;21268;-65
2023/09/19 01:26:18;;;;;;;4.13;2.30;;;;;;;16.31;95.06;99946.16;7378996;19;20378;-65
2023/09/19 01:28:57;;;;;;;6.20;2.10;;;;;;;16.34;94.76;99941.38;7379466;19;20370;-66
2023/09/19 01:31:28;;;;;;;7.80;2.70;;;;;;;16.35;94.56;99948.38;7378766;19;20487;-66
2023/09/19 01:33:59;;;;;;;5.25;2.55;;;;;;;16.34;94.30;99952.91;7377275;19;21078;-66
2023/09/19 01:36:34;;;;;;;6.90;2.50;;;;;;;16.39;94.14;99957.59;7377266;19;20887;-66
2023/09/19 01:39:05;;;;;;;6.07;2.50;;;;;;;16.42;93.52;99965.13;7381018;19;20385;-66
2023/09/19 01:42:00;;;;;;;4.70;2.38;;;;;;;16.44;92.99;99968.41;7376159;19;20371;-65
2023/09/19 01:44:53;;;;;;;6.03;3.00;;;;;;;16.49;92.98;99964.00;7380461;19;20888;-66
2023/09/19 01:47:35;;;;;;;5.95;2.80;;;;;;;16.55;92.78;99970.25;7387487;19;20393;-66
2023/09/19 01:50:18;;;;;;;5.95;3.00;;;;;;;16.59;92.96;99971.44;7391448;19;20375;-66
2023/09/19 01:53:04;;;;;;;5.03;2.80;;;;;;;16.61;92.86;99969.34;7394321;19;20364;-66
2023/09/19 01:55:42;;;;;;;4.70;2.53;;;;;;;16.61;93.30;99969.34;7393301;19;20360;-65
2023/09/19 01:58:34;;;;;;;7.20;3.00;;;;;;;16.65;93.14;99975.06;7389244;19;20368;-65
2023/09/19 02:01:01;;;;;;;4.82;2.40;;;;;;;16.67;93.03;99973.75;7391905;19;20344;-65
2023/09/19 02:03:30;;;;;;;5.70;2.67;;;;;;;16.69;92.83;99976.22;7392454;19;20372;-65
2023/09/19 02:05:57;;;;;;;6.47;2.80;;;;;;;16.70;92.74;99970.63;7390047;19;20349;-66
2023/09/19 02:08:23;;;;;;;6.32;2.83;;;;;;;16.73;92.60;99976.56;7391826;19;20356;-65
2023/09/19 02:10:52;;;;;;;8.15;2.95;;;;;;;16.73;91.93;99976.56;7391282;19;20385;-65
2023/09/19 02:13:21;;;;;;;4.87;2.87;;;;;;;16.77;91.38;99972.38;7388320;19;20375;-65
2023/09/19 02:15:48;;;;;;;7.82;2.70;;;;;;;16.77;91.45;99983.91;7391545;19;20360;-65
2023/09/19 02:18:15;;;;;;;6.63;2.83;;;;;;;16.80;91.37;99982.63;7389368;19;20364;-65
2023/09/19 02:20:42;;;;;;;6.55;3.10;;;;;;;16.79;91.08;99987.16;7393087;19;20361;-65
2023/09/19 02:23:13;;;;;;;4.82;2.60;;;;;;;16.80;90.79;99991.50;7390132;19;20476;-65
2023/09/19 02:25:40;;;;;;;5.68;3.08;;;;;;;16.80;91.18;99978.09;7389363;19;20368;-65
2023/09/19 02:28:09;;;;;;;6.27;2.97;;;;;;;16.81;90.51;99982.44;7389915;19;20425;-65
2023/09/19 02:30:36;;;;;;;7.47;2.78;;;;;;;16.82;91.15;99985.91;7393426;19;20746;-65
2023/09/19 02:33:03;;;;;;;7.47;2.78;;;;;;;16.80;89.94;99985.31;7392078;19;20374;-65
2023/09/19 02:35:35;;;;;;;4.25;2.47;;;;;;;16.84;89.63;99994.53;7391558;19;20731;-65
2023/09/19 02:38:06;;;;;;;7.75;3.00;;;;;;;16.87;89.97;99999.41;7389180;19;20368;-65
2023/09/19 02:40:35;;;;;;;8.25;2.70;;;;;;;16.84;88.50;100000.69;7393309;19;20356;-65
2023/09/19 02:43:04;;;;;;;5.73;2.93;;;;;;;16.89;88.76;100000.00;7390967;19;20959;-64
2023/09/19 02:45:32;;;;;;;5.78;2.53;;;;;;;16.83;87.85;100003.59;7387726;19;20348;-65
2023/09/19 02:48:00;;;;;;;6.15;2.80;;;;;;;16.81;87.70;100000.34;7390609;19;20364;-65
2023/09/19 02:50:27;;;;;;;7.38;2.75;;;;;;;16.81;87.82;99998.50;7392552;19;20386;-65
2023/09/19 02:52:54;;;;;;;8.50;3.20;;;;;;;16.80;87.55;99998.69;7392106;19;20380;-65
2023/09/19 02:55:21;;;;;;;7.20;2.70;;;;;;;16.72;87.33;99997.16;7391178;19;20394;-64
2023/09/19 02:57:55;;;;;;;6.22;2.92;;;;;;;16.66;87.26;99998.94;7386347;19;20356;-65
2023/09/19 03:00:22;;;;;;;6.90;3.15;;;;;;;16.63;87.10;100002.06;7383647;19;20465;-65
2023/09/19 03:02:56;;;;;;;5.15;2.95;;;;;;;16.58;86.89;99996.59;7379502;19;20884;-64
2023/09/19 03:05:24;;;;;;;7.82;2.92;;;;;;;16.53;87.28;99999.13;7383220;19;20700;-65
2023/09/19 03:07:52;;;;;;;6.53;3.20;;;;;;;16.48;87.23;100012.41;7383729;19;20365;-65
2023/09/19 03:10:20;;;;;;;6.07;3.23;;;;;;;16.43;86.95;100015.78;7381295;19;20743;-64
2023/09/19 03:12:48;;;;;;;7.35;3.10;;;;;;;16.40;86.46;100020.75;7384564;19;20352;-65
2023/09/19 03:15:15;;;;;;;7.07;3.10;;;;;;;16.35;86.96;100028.69;7380236;19;20360;-64
2023/09/19 03:17:44;;;;;;;8.65;3.13;;;;;;;16.33;86.51;100025.41;7380372;19;20360;-64
2023/09/19 03:20:13;;;;;;;5.05;2.85;;;;;;;16.28;85.70;100021.56;7378593;19;20400;-65
2023/09/19 03:22:41;;;;;;;10.77;3.53;;;;;;;16.28;85.46;100029.59;7381528;19;20364;-64
2023/09/19 03:25:11;;;;;;;6.97;2.70;;;;;;;16.25;85.44;100023.88;7379122;19;20348;-64
2023/09/19 03:27:40;;;;;;;7.32;2.55;;;;;;;16.21;85.25;100033.41;7380046;19;20348;-65
2023/09/19 03:30:08;;;;;;;8.10;2.85;;;;;;;16.17;84.77;100030.38;7381629;19;20380;-65
2023/09/19 03:32:36;;;;;;;7.47;2.77;;;;;;;16.17;84.95;100027.72;7383155;19;20591;-64
2023/09/19 03:35:06;;;;;;;5.65;2.70;;;;;;;16.12;84.90;100040.13;7378603;19;20363;-64
2023/09/19 03:37:34;;;;;;;7.53;2.58;;;;;;;16.10;85.37;100027.78;7381382;19;20432;-64
2023/09/19 03:40:04;;;;;;;7.10;2.70;;;;;;;16.04;85.28;100027.88;7380825;19;20371;-64
2023/09/19 03:42:32;;;;;;;6.88;2.50;;;;;;;16.03;85.64;100034.28;7383527;19;20383;-64
2023/09/19 03:45:00;;;;;;;7.45;2.53;;;;;;;16.01;85.91;100039.03;7380284;19;20364;-63
2023/09/19 03:47:27;;;;;;;6.75;2.63;;;;;;;15.95;85.97;100034.59;7383628;19;20376;-63
2023/09/19 03:49:55;;;;;;;9.45;2.72;;;;;;;15.92;86.61;100029.69;7383312;19;20725;-63
2023/09/19 03:52:22;;;;;;;7.03;2.30;;;;;;;15.90;86.85;100037.94;7378731;19;20444;-63
2023/09/19 03:54:49;;;;;;;5.97;2.60;;;;;;;15.84;87.19;100033.50;7380178;19;20763;-63
2023/09/19 03:57:20;;;;;;;7.07;2.80;;;;;;;15.85;87.10;100045.81;7379329;19;20440;-63
2023/09/19 03:59:47;;;;;;;7.32;2.63;;;;;;;15.82;87.43;100047.09;7383713;19;20360;-63
2023/09/19 04:02:22;;;;;;;8.45;2.53;;;;;;;15.77;87.72;100044.28;7379888;19;20360;-62
2023/09/19 04:04:52;;;;;;;7.43;2.55;;;;;;;15.76;87.76;100041.84;7377816;19;20373;-62
2023/09/19 04:07:22;;;;;;;8.05;2.75;;;;;;;15.72;88.13;100044.13;7382762;19;20357;-63
2023/09/19 04:09:49;;;;;;;6.78;2.42;;;;;;;15.70;88.21;100040.84;7376748;19;20363;-63
2023/09/19 04:12:19;;;;;;;7.72;2.45;;;;;;;15.68;88.41;100048.25;7376950;19;20353;-61
2023/09/19 04:14:46;;;;;;;9.43;2.60;;;;;;;15.66;88.51;100047.66;7371836;19;20456;-61
2023/09/19 04:17:13;;;;;;;6.03;2.30;;;;;;;15.64;88.43;100045.25;7376900;19;20907;-62
2023/09/19 04:19:41;;;;;;;8.88;2.80;;;;;;;15.66;88.56;100042.31;7380182;19;20372;-62
2023/09/19 04:22:09;;;;;;;8.35;2.85;;;;;;;15.67;88.31;100052.81;7376274;19;20737;-62
2023/09/19 04:24:37;;;;;;;9.88;2.60;;;;;;;15.71;88.18;100047.81;7377869;19;20497;-63
2023/09/19 04:27:05;;;;;;;8.45;2.88;;;;;;;15.76;87.93;100041.84;7376797;19;20456;-63
2023/09/19 04:29:32;;;;;;;9.30;3.17;;;;;;;15.78;87.56;100050.44;7378535;19;20381;-63
2023/09/19 04:31:59;;;;;;;7.53;2.65;;;;;;;15.80;87.45;100075.91;7379921;19;20395;-63
2023/09/19 04:34:27;;;;;;;6.00;2.30;;;;;;;15.79;87.25;100050.22;7381192;19;20423;-63
2023/09/19 04:36:54;;;;;;;5.88;2.70;;;;;;;15.81;86.83;100052.66;7378387;19;20375;-63
2023/09/19 04:39:21;;;;;;;7.97;2.45;;;;;;;15.81;86.47;100061.53;7381455;19;20370;-63
2023/09/19 04:41:47;;;;;;;7.47;3.00;;;;;;;15.82;86.62;100068.50;7375948;19;20884;-63
2023/09/19 04:44:15;;;;;;;6.90;2.67;;;;;;;15.80;86.77;100059.88;7378866;19;20368;-63
2023/09/19 04:46:42;;;;;;;5.20;2.75;;;;;;;15.80;86.71;100065.22;7376838;19;20753;-63
2023/09/19 04:49:09;;;;;;;9.80;3.53;;;;;;;15.77;87.09;100064.84;7378910;19;21181;-63
2023/09/19 04:51:36;;;;;;;8.27;3.22;;;;;;;15.76;87.09;100058.69;7379073;19;20962;-63
2023/09/19 04:54:03;;;;;;;8.63;3.10;;;;;;;15.76;87.31;100069.38;7379351;19;20361;-63
2023/09/19 04:56:32;;;;;;;9.18;3.70;;;;;;;15.75;87.32;100072.31;7375813;19;20909;-63
2023/09/19 04:58:59;;;;;;;6.32;3.38;;;;;;;15.76;87.59;100080.06;7376630;19;20372;-63
2023/09/19 05:01:26;;;;;;;6.57;3.70;;;;;;;15.71;87.72;100090.63;7378801;19;20356;-63
2023/09/19 05:03:53;;;;;;;7.47;3.30;;;;;;;15.72;87.45;100092.25;7381051;19;20399;-62
2023/09/19 05:06:21;;;;;;;7.82;3.80;;;;;;;15.69;87.74;100096.19;7379534;19;21006;-63
2023/09/19 05:08:50;;;;;;;10.98;4.22;;;;;;;15.68;87.75;100089.22;7377763;19;20379;-62
2023/09/19 05:11:19;;;;;;;9.68;4.03;;;;;;;15.66;87.57;100101.16;7378056;19;20360;-63
2023/09/19 05:13:46;;;;;;;11.52;4.57;;;;;;;15.65;87.57;100094.19;7379221;19;20385;-63
2023/09/19 05:16:13;;;;;;;10.32;4.10;;;;;;;15.66;86.87;100103.81;7378219;19;20375;-63
2023/09/19 05:18:39;;;;;;;9.75;4.40;;;;;;;15.68;87.11;100096.38;7376425;19;20364;-63
2023/09/19 05:21:07;;;;;;;7.93;4.20;;;;;;;15.68;87.00;100115.09;7378899;19;20449;-63
2023/09/19 05:23:34;;;;;;;8.80;4.35;;;;;;;15.72;86.79;100094.13;7379521;19;20368;-63
2023/09/19 05:26:01;;;;;;;9.98;5.00;;;;;;;15.73;86.52;100096.59;7377666;19;20404;-60
2023/09/19 05:28:29;;;;;;;10.10;4.30;;;;;;;15.77;86.43;100111.16;7378302;19;20355;-60
2023/09/19 05:30:56;;;;;;;7.60;4.90;;;;;;;15.80;86.27;100108.00;7377891;19;20929;-60
2023/09/19 05:33:23;;;;;;;8.45;3.63;;;;;;;15.82;85.45;100116.63;7376121;19;20372;-59
2023/09/19 05:35:50;;;;;;;9.00;4.20;;;;;;;15.85;85.30;100132.25;7380047;19;20955;-60
2023/09/19 05:38:18;;;;;;;10.57;5.00;;;;;;;15.86;84.71;100125.84;7379334;19;20363;-60
2023/09/19 05:40:46;;;;;;;6.25;3.60;;;;;;;15.86;84.53;100115.16;7377169;19;20412;-59
2023/09/19 05:43:14;;;;;;;13.35;4.93;;;;;;;15.87;84.70;100122.16;7377766;19;20360;-59
2023/09/19 05:45:41;;;;;;;11.82;5.28;;;;;;;15.89;83.68;100136.09;7379102;19;20443;-60
2023/09/19 05:48:16;;;;;;;10.77;4.93;;;;;;;15.90;83.19;100140.41;7387399;19;20764;-59
2023/09/19 05:50:46;;;;;;;10.53;4.77;;;;;;;15.91;82.40;100138.53;7388203;19;20377;-59
2023/09/19 05:53:14;;;;;;;9.25;4.55;;;;;;;15.85;81.60;100126.91;7390514;19;20352;-59
2023/09/19 05:55:42;;;;;;;6.60;3.90;;;;;;;15.81;80.60;100133.72;7389962;19;20724;-59
2023/09/19 05:58:10;;;;;;;9.27;5.10;;;;;;;15.83;80.61;100158.41;7388093;19;20364;-61
2023/09/19 06:00:36;;;;;;;7.90;3.67;;;;;;;15.82;80.52;100171.97;7386391;19;20820;-61
2023/09/19 06:03:05;;;;;;;9.73;4.18;;;;;;;15.80;80.32;100174.88;7388795;19;20999;-62
2023/09/19 06:05:32;;;;;;;10.02;3.78;;;;;;;15.81;79.69;100183.72;7388622;19;20424;-61
2023/09/19 06:08:00;;;;;;;8.07;3.80;;;;;;;15.85;79.63;100177.72;7388165;19;20402;-61
2023/09/19 06:10:29;;;;;;;11.10;3.95;;;;;;;15.82;78.97;100186.16;7388830;19;20382;-61
2023/09/19 06:12:57;;;;;;;11.13;3.92;;;;;;;15.82;78.54;100178.13;7387959;19;20376;-61
2023/09/19 06:15:25;;;;;;;11.43;3.92;;;;;;;15.85;79.04;100177.72;7390259;19;20442;-61
2023/09/19 06:17:57;;;;;;;10.73;3.80;;;;;;;15.89;78.74;100192.25;7383572;19;20356;-63
2023/09/19 06:20:26;;;;;;;6.00;3.38;;;;;;;15.92;78.78;100196.38;7387107;19;20368;-63
2023/09/19 06:22:53;;;;;;;7.22;3.40;;;;;;;15.92;78.81;100201.72;7389104;19;20364;-63
2023/09/19 06:25:21;;;;;;;5.82;3.30;;;;;;;15.97;78.65;100195.69;7385575;19;20360;-63
2023/09/19 06:27:53;;;;;;;14.55;4.60;;;;;;;16.04;78.63;100188.41;7386947;19;20672;-63
2023/09/19 06:30:23;;;;;;;8.47;3.47;;;;;;;16.11;78.78;100199.84;7387667;19;20368;-63
2023/09/19 06:32:58;;;;;;;9.93;4.03;;;;;;;16.14;78.61;100191.38;7387677;19;20742;-63
2023/09/19 06:35:26;;;;;;;10.60;4.20;;;;;;;16.20;78.16;100192.34;7396970;19;20376;-62
2023/09/19 06:37:53;;;;;;;7.80;3.40;;;;;;;16.21;77.99;100192.09;7393601;19;20431;-63
2023/09/19 06:40:20;;;;;;;6.80;3.30;;;;;;;16.25;78.18;100179.09;7392297;19;20388;-63
2023/09/19 06:42:51;;;;;;;12.40;5.35;;;;;;;16.28;78.18;100176.78;7392190;19;20364;-61
2023/09/19 06:45:18;;;;;;;9.75;3.70;;;;;;;16.31;77.20;100179.00;7393778;19;20767;-59
2023/09/19 06:47:49;;;;;;;8.73;3.70;;;;;;;16.36;77.18;100169.47;7394365;19;20752;-62
2023/09/19 06:50:25;;;;;;;8.45;3.60;;;;;;;16.40;77.08;100184.06;7393025;19;20372;-60
2023/09/19 06:52:54;;;;;;;10.00;3.35;;;;;;;16.41;76.61;100173.13;7394034;19;20385;-62
2023/09/19 06:55:24;;;;;;;9.80;3.35;;;;;;;16.47;76.93;100182.13;7395526;19;20357;-61
2023/09/19 06:57:54;;;;;;;10.63;3.90;;;;;;;16.49;75.73;100185.38;7392764;19;20820;-61
2023/09/19 07:00:24;;;;;;;8.57;3.23;;;;;;;16.52;75.75;100190.28;7394791;19;20723;-63
2023/09/19 07:03:03;;;;;;;7.90;3.17;;;;;;;16.52;74.77;100179.56;7393687;19;20369;-62
2023/09/19 07:05:31;;;;;;;9.70;2.90;;;;;;;16.56;73.71;100202.19;7396300;19;20369;-61
2023/09/19 07:07:59;;;;;;;6.68;2.97;;;;;;;16.63;73.50;100192.19;7391845;19;20352;-62
2023/09/19 07:10:28;;;;;;;13.15;4.35;;;;;;;16.68;73.79;100199.53;7394361;19;20396;-62
2023/09/19 07:12:59;;;;;;;8.32;2.53;;;;;;;16.74;73.41;100208.53;7394007;19;21429;-62
2023/09/19 07:15:27;;;;;;;6.10;2.88;;;;;;;16.79;72.97;100214.00;7393278;19;20369;-61
2023/09/19 07:17:56;;;;;;;8.15;3.00;;;;;;;16.87;72.05;100214.56;7391707;19;20372;-62
2023/09/19 07:20:28;;;;;;;8.77;2.25;;;;;;;16.86;70.41;100212.09;7394016;19;20368;-62
2023/09/19 07:22:55;;;;;;;7.97;2.17;;;;;;;16.86;70.59;100229.00;7394317;19;20364;-61
2023/09/19 07:25:22;;;;;;;11.13;2.20;;;;;;;16.94;70.98;100198.38;7393568;19;20894;-61
2023/09/19 07:27:51;;;;;;;6.72;1.90;;;;;;;17.03;70.87;100213.06;7390729;19;20368;-61
2023/09/19 07:30:17;;;;;;;9.90;2.47;;;;;;;17.05;69.98;100208.31;7395303;19;20361;-60
2023/09/19 07:32:44;;;;;;;8.55;2.00;;;;;;;17.18;70.45;100214.53;7392461;19;20439;-61
2023/09/19 07:35:12;;;;;;;5.43;2.20;;;;;;;17.22;68.83;100226.41;7394501;19;20344;-61
2023/09/19 07:37:38;;;;;;;12.57;2.07;;;;;;;17.28;68.53;100236.22;7390838;19;20366;-62
2023/09/19 07:40:09;;;;;;;7.10;2.25;;;;;;;17.28;68.04;100225.50;7391332;19;20369;-61
2023/09/19 07:42:38;;;;;;;6.30;1.90;;;;;;;17.31;68.15;100230.38;7394184;19;20364;-61
2023/09/19 07:45:06;;;;;;;8.55;1.92;;;;;;;17.42;68.19;100232.25;7390413;19;20375;-61
2023/09/19 07:47:34;;;;;;;10.30;2.10;;;;;;;17.47;67.50;100245.81;7391825;19;20742;-61
2023/09/19 07:50:02;;;;;;;8.48;1.73;;;;;;;17.52;67.38;100237.88;7392862;19;20361;-62
2023/09/19 07:52:29;;;;;;;7.30;1.83;;;;;;;17.62;67.96;100241.84;7393815;19;20392;-61
2023/09/19 07:54:57;;;;;;;5.60;1.45;;;;;;;17.62;67.08;100252.59;7393354;19;20372;-61
2023/09/19 07:57:24;;;;;;;6.75;1.73;;;;;;;17.68;67.44;100257.84;7391264;19;20931;-61
2023/09/19 07:59:51;;;;;;;6.87;1.60;;;;;;;17.69;66.36;100243.34;7390997;19;20367;-60
2023/09/19 08:02:18;;;;;;;7.65;1.85;;;;;;;17.70;65.73;100261.09;7392521;19;20364;-62
2023/09/19 08:04:46;;;;;;;5.45;1.40;;;;;;;17.65;65.69;100254.78;7393799;19;20355;-61
2023/09/19 08:07:13;;;;;;;8.02;1.92;;;;;;;17.77;66.77;100260.97;7392491;19;20372;-61
2023/09/19 08:09:40;;;;;;;6.85;1.55;;;;;;;17.73;65.57;100251.75;7391210;19;20367;-62
2023/09/19 08:12:10;;;;;;;8.23;1.70;;;;;;;17.83;65.82;100254.72;7389344;19;20356;-59
2023/09/19 08:14:41;;;;;;;7.70;2.20;;;;;;;17.86;65.68;100256.91;7392188;19;20417;-59
2023/09/19 08:17:08;;;;;;;5.97;1.40;;;;;;;17.89;65.16;100272.56;7392457;19;20360;-61
2023/09/19 08:19:36;;;;;;;10.25;2.28;;;;;;;17.91;64.99;100275.84;7388558;19;20464;-62
2023/09/19 08:22:03;;;;;;;6.40;2.08;;;;;;;17.95;65.46;100275.34;7393131;19;20721;-61
2023/09/19 08:24:30;;;;;;;7.57;1.70;;;;;;;17.99;64.45;100263.09;7392677;19;20378;-61
2023/09/19 08:26:57;;;;;;;9.50;1.98;;;;;;;18.05;64.79;100256.81;7390484;19;20488;-61
2023/09/19 08:29:27;;;;;;;7.17;2.07;;;;;;;18.10;64.18;100260.41;7393181;19;20377;-60
2023/09/19 08:31:55;;;;;;;8.52;2.10;;;;;;;18.15;63.99;100262.41;7389519;19;20741;-62
2023/09/19 08:34:24;;;;;;;6.17;2.33;;;;;;;18.19;64.04;100258.19;7393303;19;20328;-61
2023/09/19 08:36:52;;;;;;;6.55;1.90;;;;;;;18.26;63.41;100261.56;7391229;19;20875;-61
2023/09/19 08:39:19;;;;;;;8.43;2.50;;;;;;;18.32;62.78;100263.31;7390292;19;20434;-62
2023/09/19 08:41:46;;;;;;;8.80;2.53;;;;;;;18.32;61.31;100262.50;7390944;19;20371;-62
2023/09/19 08:44:13;;;;;;;6.25;1.63;;;;;;;18.47;61.57;100259.31;7384622;19;20933;-60
2023/09/19 08:46:42;;;;;;;6.60;2.38;;;;;;;18.49;60.47;100262.56;7391938;19;20360;-62
2023/09/19 08:49:24;;;;;;;7.82;2.00;;;;;;;18.55;61.09;100264.28;7390949;19;20392;-60
2023/09/19 08:52:05;;;;;;;6.53;1.60;;;;;;;18.50;60.08;100259.63;7392768;19;20735;-61
2023/09/19 08:54:40;;;;;;;5.90;1.50;;;;;;;18.50;59.67;100274.94;7392074;19;20880;-60
2023/09/19 08:57:10;;;;;;;5.73;2.07;;;;;;;18.53;60.67;100267.22;7386806;19;20403;-62
2023/09/19 08:59:40;;;;;;;9.37;2.80;;;;;;;18.61;60.74;100274.06;7394121;19;20730;-61
2023/09/19 09:02:15;;;;;;;8.00;1.73;;;;;;;18.67;60.90;100264.25;7389933;19;20369;-61
2023/09/19 09:04:44;;;;;;;6.50;2.10;;;;;;;18.74;61.20;100276.50;7390609;19;20896;-62
2023/09/19 09:07:16;;;;;;;6.13;1.58;;;;;;;18.66;59.85;100268.00;7389678;19;20352;-62
2023/09/19 09:09:43;;;;;;;5.85;1.60;;;;;;;18.63;60.37;100287.28;7391301;19;20407;-61
2023/09/19 09:12:14;;;;;;;7.80;1.50;;;;;;;18.74;61.02;100305.22;7387725;19;20876;-62
2023/09/19 09:14:49;;;;;;;5.05;1.60;;;;;;;18.74;60.70;100281.88;7388498;19;20372;-60
2023/09/19 09:17:20;;;;;;;7.95;1.80;;;;;;;18.75;60.36;100280.81;7390453;19;20419;-61
2023/09/19 09:19:47;;;;;;;4.43;1.45;;;;;;;18.70;60.16;100291.47;7388379;19;20365;-60
2023/09/19 09:22:14;;;;;;;4.35;1.40;;;;;;;18.74;60.05;100281.88;7390093;19;20447;-61
2023/09/19 09:24:58;;;;;;;6.65;1.67;;;;;;;18.65;58.85;100288.66;7386703;19;20381;-63
2023/09/19 09:27:25;;;;;;;5.53;1.42;;;;;;;18.80;60.25;100279.31;7390053;19;20374;-63
2023/09/19 09:29:54;;;;;;;6.30;1.73;;;;;;;18.87;60.47;100279.97;7389786;19;20377;-63
2023/09/19 09:32:24;;;;;;;4.82;1.63;;;;;;;18.84;59.53;100285.84;7385118;19;20356;-63
2023/09/19 09:34:53;;;;;;;3.75;1.17;;;;;;;18.95;59.28;100274.22;7388421;19;20360;-63
2023/09/19 09:37:26;;;;;;;6.23;1.63;;;;;;;19.04;59.49;100275.47;7387891;19;20697;-63
2023/09/19 09:39:58;;;;;;;4.45;1.25;;;;;;;19.15;60.34;100288.03;7388813;19;20444;-63
2023/09/19 09:42:38;;;;;;;5.97;1.45;;;;;;;19.32;60.20;100285.38;7387723;19;20340;-63
2023/09/19 09:45:38;;;;;;;7.82;1.58;;;;;;;19.38;58.85;100286.28;7388824;19;20368;-63
2023/09/19 09:48:14;;;;;;;7.38;1.75;;;;;;;19.45;59.61;100283.44;7386264;19;20357;-63
2023/09/19 09:53:26;;;;;;;6.38;1.50;;;;;;;19.26;58.58;100288.22;7386796;19;20900;-63
2023/09/19 09:56:06;;;;;;;4.97;1.40;;;;;;;19.34;58.38;100302.09;7389046;19;20416;-63
2023/09/19 09:58:53;;;;;;;6.25;1.50;;;;;;;19.39;58.43;100287.91;7389041;19;20508;-63
2023/09/19 10:01:21;;;;;;;4.70;1.33;;;;;;;19.40;57.88;100288.72;7389111;19;20780;-63
2023/09/19 10:03:48;;;;;;;7.28;1.75;;;;;;;19.56;57.31;100296.78;7388378;19;20679;-62
2023/09/19 10:06:26;;;;;;;6.97;1.55;;;;;;;19.60;56.11;100288.25;7388368;19;20363;-63
2023/09/19 10:09:36;;;;;;;5.82;1.30;;;;;;;19.64;55.43;100281.31;7393252;19;20917;-63
2023/09/19 10:12:08;;;;;;;5.75;1.50;;;;;;;19.60;55.35;100309.78;7390113;19;20362;-63
2023/09/19 10:14:38;;;;;;;6.30;1.70;;;;;;;19.55;55.63;100302.41;7396255;19;20805;-63
2023/09/19 10:17:05;;;;;;;4.93;1.42;;;;;;;19.59;55.46;100316.19;7395566;19;20387;-63
2023/09/19 10:20:09;;;;;;;6.05;1.50;;;;;;;19.69;56.54;100300.22;7393296;19;20701;-63
2023/09/19 10:22:37;;;;;;;5.35;1.60;;;;;;;19.83;55.92;100309.63;7394031;19;20860;-63
2023/09/19 10:25:08;;;;;;;7.95;1.90;;;;;;;19.98;56.62;100295.59;7387937;19;20834;-63
2023/09/19 10:27:37;;;;;;;7.28;1.75;;;;;;;20.08;56.27;100289.53;7388021;19;20356;-63
2023/09/19 10:30:10;;;;;;;6.75;1.83;;;;;;;20.04;55.88;100289.22;7395203;19;20368;-63
2023/09/19 10:32:40;;;;;;;9.80;2.10;;;;;;;20.07;55.57;100309.44;7395383;19;20356;-63
2023/09/19 10:35:08;;;;;;;7.50;1.70;;;;;;;20.10;56.25;100292.78;7395763;19;20694;-63
2023/09/19 10:37:37;;;;;;;7.03;1.95;;;;;;;20.01;54.65;100280.81;7393002;19;20413;-63
2023/09/19 10:40:08;;;;;;;5.85;1.55;;;;;;;20.01;55.16;100283.50;7393973;19;20424;-63
2023/09/19 10:42:38;;;;;;;6.68;1.70;;;;;;;19.96;55.82;100282.38;7392978;19;20348;-63
2023/09/19 10:45:08;;;;;;;6.63;1.88;;;;;;;20.09;56.15;100296.56;7395092;19;20722;-63
2023/09/19 10:47:37;;;;;;;6.18;1.67;;;;;;;20.17;57.39;100288.06;7394605;19;20983;-63
2023/09/19 10:50:12;;;;;;;6.85;1.50;;;;;;;20.18;55.38;100281.59;7394534;19;20414;-63
2023/09/19 10:52:42;;;;;;;7.30;1.75;;;;;;;20.30;55.38;100287.69;7395363;19;20356;-63
2023/09/19 10:55:18;;;;;;;6.50;1.67;;;;;;;20.43;55.56;100280.31;7392334;19;20857;-63
2023/09/19 10:57:46;;;;;;;8.35;1.77;;;;;;;20.48;54.82;100280.34;7395619;19;20677;-63
2023/09/19 11:00:28;;;;;;;7.03;1.50;;;;;;;20.64;55.13;100282.19;7392887;19;20884;-64
2023/09/19 11:03:11;;;;;;;5.85;2.00;;;;;;;20.62;52.65;100295.13;7393705;19;20373;-63
2023/09/19 11:05:40;;;;;;;4.35;1.60;;;;;;;20.51;53.11;100299.53;7395146;19;20347;-63
2023/09/19 11:08:08;;;;;;;6.33;1.93;;;;;;;20.65;53.99;100294.59;7394675;19;20416;-63
2023/09/19 11:10:49;;;;;;;5.03;1.95;;;;;;;20.75;53.35;100281.25;7393043;19;20370;-63
2023/09/19 11:13:34;;;;;;;4.57;1.57;;;;;;;20.75;52.75;100304.69;7392646;19;20381;-63
2023/09/19 11:16:00;;;;;;;7.60;1.88;;;;;;;20.81;53.17;100282.13;7393112;19;20372;-63
2023/09/19 11:18:39;;;;;;;8.13;2.03;;;;;;;20.79;50.85;100288.84;7393167;19;20364;-63
2023/09/19 11:21:33;;;;;;;6.40;1.90;;;;;;;20.87;50.48;100320.72;7391545;19;20376;-63
2023/09/19 11:24:09;;;;;;;5.67;1.67;;;;;;;20.84;50.11;100280.81;7390661;19;20413;-63
2023/09/19 11:26:47;;;;;;;7.10;1.83;;;;;;;21.12;50.93;100277.03;7394871;19;20402;-64
2023/09/19 11:29:28;;;;;;;5.97;1.52;;;;;;;21.29;50.80;100293.91;7392612;19;20356;-64
2023/09/19 11:31:56;;;;;;;9.10;1.65;;;;;;;21.39;49.01;100306.69;7394104;19;20360;-63
2023/09/19 11:34:36;;;;;;;5.85;1.80;;;;;;;21.45;49.45;100311.09;7394149;19;20352;-63
2023/09/19 11:37:04;;;;;;;4.43;1.57;;;;;;;21.53;48.67;100283.66;7391245;19;20417;-63
2023/09/19 11:39:32;;;;;;;8.90;2.00;;;;;;;21.61;49.09;100276.13;7392941;19;20364;-64
2023/09/19 11:42:00;;;;;;;6.38;1.67;;;;;;;21.57;48.58;100290.16;7391277;19;20364;-63
2023/09/19 11:44:30;;;;;;;8.15;2.10;;;;;;;21.69;49.84;100281.88;7393766;19;20910;-63